Meteo Giornale » Osservazioni meteo Stati Uniti (USA) » Altus
ore: 11:55 - Osservazioni Meteo Altus
Lat. 34° 39' N Lon. 99° 16' W Alt. 420 metri s.l.m.
36 °C
Sereno
Temp. 24 Ore
23 °C
41 °C
Sud
14.8 Km/h
Dew point 17 °C
Umidità 32 %
Visibilità 10 Km
Il sole sorge alle ore 07:09
Il sole tramonta alle ore 20:05
| Data e Ora | Cielo e Fenomeni | T °C | DP °C | Um. % | Pres. hPa | Vis. km | Vento km/h | |
|---|---|---|---|---|---|---|---|---|
| Oggi h: 11:55 | Sereno | 36 | 17 | 32 | 1015 | 10 | S 14.8 | |
| Oggi h: 10:55 | Sereno | 34 | 17 | 36 | 1016 | 10 | S/SO 18.5 | |
| Oggi h: 09:55 | Poco Nuvoloso | 32 | 17 | 40 | 1015 | 10 | S 22.2 | |
| Oggi h: 08:55 | Sereno | 29 | 16 | 45 | 1015 | 10 | S/SE 14.8 | |
| Oggi h: 07:55 | Sereno | 25 | 15 | 53 | 1015 | 10 | SE 13 | |
| Oggi h: 06:55 | Sereno | 23 | 14 | 56 | 1014 | 10 | E/SE 9.3 | |
| Oggi h: 05:55 | Sereno | 24 | 14 | 53 | 1013 | 10 | E/SE 11.1 | |
| Oggi h: 04:55 | Sereno | 24 | 14 | 53 | 1013 | 10 | E/SE 13 | |
| Oggi h: 03:55 | Sereno | 24 | 13 | 50 | 1013 | 10 | E/SE 13 | |
| Oggi h: 02:55 | Sereno | 26 | 12 | 41 | 1012 | 10 | SE 13 | |
| Oggi h: 01:55 | Sereno | 27 | 12 | 39 | 1012 | 10 | SE 16.7 | |
| Oggi h: 00:55 | Sereno | 29 | 12 | 35 | 1012 | 10 | S/SE 20.3 | |
| Ieri h: 23:55 | Sereno | 30 | 12 | 33 | 1012 | 10 | SE 22.2 | |
| Ieri h: 22:55 | Sereno | 32 | 12 | 29 | 1011 | 10 | SE 22.2 | |
| Ieri h: 21:55 | Sereno | 33 | 12 | 27 | 1011 | 10 | SE 18.5 | |
| Ieri h: 20:55 | Sereno | 34 | 13 | 28 | 1010 | 10 | SE 16.7 | |
| Ieri h: 19:55 | Sereno | 36 | 12 | 23 | 1010 | 10 | SE 22.2 | |
| Ieri h: 18:55 | Sereno | 39 | 12 | 20 | 1010 | 10 | S/SE 25.9 | |
| Ieri h: 17:55 | Sereno | 40 | 12 | 19 | 1010 | 10 | S 22.2 | |
| Ieri h: 16:55 | Sereno | 41 | 13 | 19 | 1010 | 10 | S/SE 25.9 | |
| Ieri h: 15:55 | Sereno | 40 | 12 | 19 | 1011 | 10 | S/SE 22.2 | |
| Ieri h: 15:40 | Sereno | 40 | 13 | 20 | 1011 | 10 | S/SE 27.8 | |
| Ieri h: 15:31 | Poco Nuvoloso | 39 | 13 | 21 | 1011 | 10 | S/SO 20.3 | |
| Ieri h: 15:00 | Poco Nuvoloso | 40 | 13 | 20 | 1011 | 10 | S 24 | |
| Ieri h: 14:55 | Poco Nuvoloso | 40 | 13 | 20 | 1011 | 10 | S/SE 27.8 | |
| Ieri h: 14:54 | Poco Nuvoloso | 40 | 13 | 20 | 1011 | 10 | S/SE 25.9 | |
| Ieri h: 14:50 | Poco Nuvoloso | 40 | 13 | 20 | 1011 | 10 | S 20.3 | |
| Ieri h: 14:45 | Sereno | 40 | 13 | 20 | 1011 | 10 | S 24 | |
| Ieri h: 14:41 | Sereno | 40 | 14 | 21 | 1011 | 10 | S/SO 27.8 | |
| Ieri h: 14:29 | Sereno | 40 | 14 | 21 | 1011 | 10 | S 24 | |
| Ieri h: 14:24 | Sereno | 40 | 14 | 21 | 1012 | 10 | S/SE 24 | |
| Ieri h: 13:55 | Nuvoloso | 40 | 15 | 23 | 1012 | 10 | S/SE 22.2 | |
| Ieri h: 13:51 | Nuvoloso | 39 | 15 | 24 | 1012 | 10 | S/SE 31.5 | |



